Stations météo

Publicité
Valencia Airport, Espagne (2008284): Température de l'air & dewpoint: 01.08.2020 12:00:00 - 07.08.2020 12:00:00 (CEST)Valencia Airport, Espagne (2008284): Vitesse du vent: 01.08.2020 12:00:00 - 07.08.2020 12:00:00 (CEST)Valencia Airport, Espagne (2008284): Direction du vent: 01.08.2020 12:00:00 - 07.08.2020 12:00:00 (CEST)Valencia Airport, Espagne (2008284): visibility: 01.08.2020 12:00:00 - 07.08.2020 12:00:00 (CEST)
Date & Time tt [°C] td [°C] ff [km/h] ff [knt] dd vv [km]
07.08.2020 12:00:00 - - - - - -
07.08.2020 11:00:00 30,0 20,0 0 0 N 10
07.08.2020 10:00:00 28,0 19,0 2 1 - 10
07.08.2020 09:00:00 25,0 17,0 5 3 WNW 10
07.08.2020 08:00:00 23,0 17,0 8 4 NW 10
07.08.2020 07:00:00 23,0 17,0 5 3 W 10
07.08.2020 06:00:00 23,0 18,0 2 1 - 10
07.08.2020 05:00:00 23,0 18,0 5 3 WNW 10
07.08.2020 04:00:00 24,0 20,0 5 3 W 10
07.08.2020 03:00:00 25,0 20,0 8 4 NW 10
07.08.2020 02:00:00 26,0 21,0 8 4 NW 10
07.08.2020 01:00:00 27,0 21,0 9 5 N 10
07.08.2020 00:00:00 27,0 22,0 5 3 NNE 10
06.08.2020 23:00:00 28,0 21,0 5 3 ENE 10
06.08.2020 22:00:00 28,0 21,0 9 5 ESE 10
06.08.2020 21:00:00 28,0 20,0 11 6 SE 10
06.08.2020 20:00:00 29,0 19,0 16 9 ESE 10
06.08.2020 19:00:00 31,0 17,0 21 11 ESE 10
06.08.2020 18:00:00 31,0 17,0 22 12 ESE 10
06.08.2020 17:00:00 31,0 19,0 21 11 SE 10
06.08.2020 16:00:00 31,0 20,0 21 11 ESE 10
06.08.2020 15:00:00 31,0 22,0 18 10 SE 10
06.08.2020 14:00:00 32,0 22,0 13 7 SE 10
06.08.2020 13:00:00 31,0 21,0 8 4 - 10
06.08.2020 12:00:00 30,0 20,0 9 5 - 10
06.08.2020 11:00:00 29,0 20,0 2 1 - 10
06.08.2020 10:00:00 27,0 22,0 8 4 NNW 10
06.08.2020 09:00:00 26,0 21,0 13 7 NW 10
06.08.2020 08:00:00 24,0 21,0 11 6 NW 10
06.08.2020 07:00:00 23,0 20,0 11 6 NNW 10
06.08.2020 06:00:00 24,0 20,0 9 5 NNW 10
06.08.2020 05:00:00 25,0 20,0 8 4 N 10
06.08.2020 04:00:00 25,0 21,0 9 5 NNW 10
06.08.2020 03:00:00 25,0 22,0 8 4 NNW 10
06.08.2020 02:00:00 26,0 22,0 9 5 NNE 10
06.08.2020 01:00:00 26,0 23,0 9 5 NNE 10
06.08.2020 00:00:00 27,0 23,0 9 5 ENE 10
05.08.2020 23:00:00 27,0 22,0 11 6 ENE 10
05.08.2020 22:00:00 27,0 23,0 11 6 E 10
05.08.2020 21:00:00 28,0 23,0 16 9 E 10
05.08.2020 20:00:00 29,0 23,0 18 10 ESE 10
05.08.2020 19:00:00 30,0 21,0 18 10 ESE 10
05.08.2020 18:00:00 31,0 21,0 22 12 SE 10
05.08.2020 17:00:00 31,0 22,0 22 12 ESE 10
05.08.2020 16:00:00 31,0 22,0 22 12 ESE 10
05.08.2020 15:00:00 31,0 22,0 18 10 ESE 10
05.08.2020 14:00:00 31,0 22,0 18 10 ESE 10
05.08.2020 13:00:00 30,0 23,0 22 12 ESE 10
05.08.2020 12:00:00 30,0 21,0 4 2 - 10
05.08.2020 11:00:00 28,0 22,0 5 3 E 10
05.08.2020 10:00:00 28,0 22,0 8 4 ENE 10
05.08.2020 09:00:00 26,0 22,0 8 4 NNW 10
05.08.2020 08:00:00 24,0 21,0 8 4 NW 10
05.08.2020 07:00:00 24,0 21,0 8 4 NW 10
05.08.2020 06:00:00 24,0 21,0 9 5 NNW 10
05.08.2020 05:00:00 25,0 22,0 11 6 NNW 10
05.08.2020 04:00:00 26,0 22,0 8 4 N 10
05.08.2020 03:00:00 27,0 23,0 8 4 NNE 10
05.08.2020 02:00:00 27,0 22,0 5 3 E 10
05.08.2020 01:00:00 27,0 22,0 8 4 ENE 10
05.08.2020 00:00:00 27,0 23,0 9 5 ESE 10
04.08.2020 23:00:00 27,0 23,0 11 6 ESE 10
04.08.2020 22:00:00 27,0 23,0 11 6 ENE 10
04.08.2020 21:00:00 28,0 22,0 15 8 E 10
04.08.2020 20:00:00 28,0 22,0 18 10 E 10
04.08.2020 19:00:00 29,0 23,0 18 10 E 10
04.08.2020 18:00:00 29,0 21,0 21 11 E 10
04.08.2020 17:00:00 29,0 20,0 16 9 ESE 10
04.08.2020 16:00:00 30,0 20,0 21 11 ESE 10
04.08.2020 15:00:00 30,0 17,0 22 12 ESE 10
04.08.2020 14:00:00 30,0 17,0 21 11 E 10
04.08.2020 13:00:00 29,0 18,0 22 12 ESE 10
04.08.2020 12:00:00 29,0 20,0 18 10 SE 10
04.08.2020 11:00:00 28,0 19,0 11 6 E 10
04.08.2020 10:00:00 28,0 16,0 8 4 NNW 10
04.08.2020 09:00:00 27,0 18,0 8 4 NW 10
04.08.2020 08:00:00 24,0 20,0 9 5 NW 10
04.08.2020 07:00:00 24,0 20,0 5 3 W 10
04.08.2020 06:00:00 24,0 20,0 5 3 W 10
04.08.2020 05:00:00 25,0 20,0 8 4 NW 10
04.08.2020 04:00:00 25,0 20,0 11 6 NNW 10
04.08.2020 03:00:00 25,0 20,0 13 7 NNW 10
04.08.2020 02:00:00 26,0 20,0 8 4 NNW 10
04.08.2020 01:00:00 27,0 21,0 5 3 NNE 10
04.08.2020 00:00:00 27,0 21,0 8 4 NE 10
03.08.2020 23:00:00 27,0 21,0 8 4 E 10
03.08.2020 22:00:00 27,0 20,0 8 4 SSE 10
03.08.2020 21:00:00 28,0 20,0 13 7 SE 10
03.08.2020 20:00:00 28,0 20,0 13 7 SE 10
03.08.2020 19:00:00 29,0 20,0 13 7 ESE 10
03.08.2020 18:00:00 29,0 20,0 16 9 SE 10
03.08.2020 17:00:00 29,0 20,0 16 9 SE 10
03.08.2020 16:00:00 29,0 21,0 21 11 ESE 10
03.08.2020 15:00:00 30,0 20,0 15 8 E 10
03.08.2020 14:00:00 29,0 19,0 22 12 E 10
03.08.2020 13:00:00 29,0 20,0 16 9 E 10
03.08.2020 12:00:00 29,0 19,0 11 6 NE 10
03.08.2020 11:00:00 27,0 20,0 13 7 N 10
03.08.2020 10:00:00 28,0 20,0 11 6 E 10
03.08.2020 09:00:00 28,0 18,0 9 5 E 10
03.08.2020 08:00:00 27,0 18,0 15 8 ENE 10
03.08.2020 07:00:00 28,0 18,0 11 6 NE 10
03.08.2020 06:00:00 28,0 20,0 13 7 NE 10
03.08.2020 05:00:00 28,0 22,0 21 11 ENE 10
03.08.2020 04:00:00 28,0 25,0 9 5 NE 10
03.08.2020 03:00:00 28,0 24,0 11 6 NNE 10
03.08.2020 02:00:00 28,0 24,0 9 5 NNE 10
03.08.2020 01:00:00 28,0 24,0 9 5 NE 10
03.08.2020 00:00:00 28,0 24,0 11 6 N 10
02.08.2020 23:00:00 29,0 25,0 9 5 NE 10
02.08.2020 22:00:00 29,0 24,0 9 5 ENE 10
02.08.2020 21:00:00 29,0 24,0 11 6 ENE 10
02.08.2020 20:00:00 30,0 24,0 13 7 E 10
02.08.2020 19:00:00 30,0 23,0 18 10 E 10
02.08.2020 18:00:00 31,0 23,0 18 10 E 10
02.08.2020 17:00:00 31,0 23,0 18 10 E 10
02.08.2020 16:00:00 31,0 23,0 22 12 E 10
02.08.2020 15:00:00 32,0 23,0 16 9 E 10
02.08.2020 14:00:00 32,0 22,0 16 9 ESE 10
02.08.2020 13:00:00 32,0 21,0 15 8 E 10
02.08.2020 12:00:00 31,0 21,0 8 4 E 10
02.08.2020 11:00:00 30,0 21,0 11 6 E 10
02.08.2020 10:00:00 29,0 24,0 2 1 - 10
02.08.2020 09:00:00 27,0 23,0 5 3 NW 10
02.08.2020 08:00:00 25,0 22,0 8 4 WNW 10
02.08.2020 07:00:00 24,0 21,0 8 4 W 10
02.08.2020 06:00:00 24,0 21,0 4 2 W 10
02.08.2020 05:00:00 25,0 21,0 4 2 WNW 10
02.08.2020 04:00:00 26,0 22,0 0 0 N 10
02.08.2020 03:00:00 27,0 22,0 0 0 N 10
02.08.2020 02:00:00 27,0 22,0 0 0 N 10
02.08.2020 01:00:00 28,0 22,0 4 2 - 10
02.08.2020 00:00:00 28,0 23,0 8 4 WSW 10
01.08.2020 23:00:00 29,0 25,0 8 4 ESE 10
01.08.2020 22:00:00 30,0 23,0 8 4 ESE 10
01.08.2020 21:00:00 31,0 22,0 18 10 ENE 10
01.08.2020 20:00:00 31,0 25,0 18 10 ENE 10
01.08.2020 19:00:00 31,0 25,0 21 11 E 10
01.08.2020 18:00:00 32,0 26,0 18 10 ENE 10
01.08.2020 17:00:00 33,0 25,0 18 10 E 10
01.08.2020 16:00:00 34,0 24,0 16 9 ESE 10
01.08.2020 15:00:00 34,0 24,0 13 7 E 10
01.08.2020 14:00:00 34,0 24,0 13 7 SE 10
01.08.2020 13:00:00 33,0 25,0 13 7 E 10
01.08.2020 12:00:00 32,0 24,0 13 7 E 10

tt = Température de l'air
td = dewpoint
ff = Vitesse du vent
dd = Direction du vent
vv = visibility

stations d'obs. à proximité